createdAt,value
2022-08-26T00:00:54.444Z,90.30
2022-08-26T00:03:23.401Z,90.40
2022-08-26T00:05:52.256Z,90.40
2022-08-26T00:08:22.038Z,90.40
2022-08-26T00:10:50.849Z,90.40
2022-08-26T00:13:19.719Z,90.50
2022-08-26T00:15:51.481Z,90.50
2022-08-26T00:18:22.178Z,91.00
2022-08-26T00:20:52.162Z,90.70
2022-08-26T00:23:20.954Z,90.80
2022-08-26T00:25:56.768Z,91.10
2022-08-26T00:28:25.876Z,91.00
2022-08-26T00:30:56.018Z,91.10
2022-08-26T00:33:24.571Z,91.20
2022-08-26T00:35:52.809Z,91.10
2022-08-26T00:38:23.682Z,91.40
2022-08-26T00:40:59.470Z,91.30
2022-08-26T00:43:28.828Z,91.30
2022-08-26T00:46:05.938Z,91.40
2022-08-26T00:48:38.856Z,91.60
2022-08-26T00:51:14.262Z,91.70
2022-08-26T00:53:54.629Z,91.70
2022-08-26T00:56:27.592Z,91.90
2022-08-26T00:58:59.900Z,92.00
2022-08-26T01:01:30.777Z,92.00
2022-08-26T01:03:59.949Z,92.20
2022-08-26T01:06:29.859Z,92.10
2022-08-26T01:08:58.826Z,92.20
2022-08-26T01:11:27.794Z,92.30
2022-08-26T01:13:58.989Z,92.50
2022-08-26T01:16:32.119Z,92.50
2022-08-26T01:19:04.941Z,92.60
2022-08-26T01:21:41.297Z,92.70
2022-08-26T01:24:13.867Z,92.80
2022-08-26T01:26:44.835Z,92.80
2022-08-26T01:29:16.947Z,92.90
2022-08-26T01:31:48.402Z,93.00
2022-08-26T01:34:22.682Z,93.20
2022-08-26T01:36:52.269Z,93.20
2022-08-26T01:39:23.120Z,93.30
2022-08-26T01:41:54.537Z,93.40
2022-08-26T01:44:27.865Z,93.50
2022-08-26T01:46:58.812Z,93.70
2022-08-26T01:49:31.971Z,93.70
2022-08-26T01:52:05.770Z,93.80
2022-08-26T01:54:36.935Z,94.00
2022-08-26T01:57:07.417Z,94.10
2022-08-26T01:59:36.231Z,94.10
2022-08-26T02:02:04.645Z,94.30
2022-08-26T02:04:37.513Z,94.50
2022-08-26T02:07:10.203Z,94.40
2022-08-26T02:09:42.876Z,94.50
2022-08-26T02:12:13.318Z,94.60
2022-08-26T02:14:46.877Z,94.60
2022-08-26T02:17:15.714Z,94.70
2022-08-26T02:19:48.799Z,94.80
2022-08-26T02:22:21.191Z,94.90
2022-08-26T02:24:53.260Z,95.10
2022-08-26T02:27:24.837Z,95.10
2022-08-26T02:29:57.507Z,95.20
2022-08-26T02:32:26.022Z,95.20
2022-08-26T02:34:55.396Z,95.20
2022-08-26T02:37:24.159Z,95.30
2022-08-26T02:39:55.262Z,95.40
2022-08-26T02:42:23.690Z,95.40
2022-08-26T02:44:53.347Z,95.40
2022-08-26T02:47:21.606Z,95.40
2022-08-26T02:49:53.324Z,95.60
2022-08-26T02:52:24.137Z,95.50
2022-08-26T02:54:54.195Z,95.60
2022-08-26T02:57:23.807Z,95.60
2022-08-26T02:59:52.698Z,95.90
2022-08-26T03:02:23.342Z,95.80
2022-08-26T03:04:57.714Z,95.80
2022-08-26T03:07:30.565Z,95.80
2022-08-26T03:10:00.870Z,95.90
2022-08-26T03:12:29.167Z,96.00
2022-08-26T03:14:58.063Z,96.10
2022-08-26T03:17:27.029Z,96.20
2022-08-26T03:19:57.243Z,96.20
2022-08-26T03:22:28.227Z,96.40
2022-08-26T03:24:56.716Z,96.40
2022-08-26T03:27:26.519Z,96.50
2022-08-26T03:30:15.783Z,96.70
2022-08-26T03:32:48.035Z,96.60
2022-08-26T03:35:16.778Z,96.60
2022-08-26T03:37:45.037Z,96.70
2022-08-26T03:40:13.807Z,96.70
2022-08-26T03:42:45.453Z,96.60
2022-08-26T03:45:14.579Z,96.60
2022-08-26T03:47:45.906Z,96.70
2022-08-26T03:50:22.842Z,96.70
2022-08-26T03:52:55.915Z,96.60
2022-08-26T03:55:31.928Z,96.70
2022-08-26T03:58:02.693Z,96.70
2022-08-26T04:00:31.766Z,96.80
2022-08-26T04:03:05.178Z,96.80
2022-08-26T04:05:38.363Z,96.80
2022-08-26T04:08:07.055Z,96.80
2022-08-26T04:10:38.450Z,96.80
2022-08-26T04:13:08.368Z,96.80
2022-08-26T04:15:36.899Z,96.90
2022-08-26T04:18:05.276Z,96.90
2022-08-26T04:20:33.465Z,96.90
2022-08-26T04:23:01.713Z,96.80
2022-08-26T04:25:33.146Z,96.80
2022-08-26T04:28:01.439Z,96.70
2022-08-26T04:30:31.570Z,96.70
2022-08-26T04:32:59.907Z,96.80
2022-08-26T04:35:28.135Z,96.60
2022-08-26T04:37:59.046Z,96.60
2022-08-26T04:40:27.737Z,96.60
2022-08-26T04:42:56.443Z,96.60
2022-08-26T04:45:25.321Z,96.60
2022-08-26T04:47:56.456Z,96.70
2022-08-26T04:50:26.559Z,96.70
2022-08-26T04:52:56.464Z,96.70
2022-08-26T04:55:39.763Z,96.80
2022-08-26T04:58:10.972Z,96.70
2022-08-26T05:00:41.587Z,96.70
2022-08-26T05:03:11.862Z,96.60
2022-08-26T05:05:44.538Z,96.80
2022-08-26T05:08:14.329Z,96.80
2022-08-26T05:10:46.031Z,96.90
2022-08-26T05:13:15.894Z,97.00
2022-08-26T05:15:45.089Z,97.10
2022-08-26T05:18:19.943Z,97.20
2022-08-26T05:20:50.292Z,97.20
2022-08-26T05:23:20.729Z,97.10
2022-08-26T05:25:50.302Z,97.10
2022-08-26T05:28:22.048Z,97.20
2022-08-26T05:30:51.256Z,97.10
2022-08-26T05:33:21.449Z,97.20
2022-08-26T05:35:50.509Z,97.20
2022-08-26T05:38:21.505Z,97.20
2022-08-26T05:40:52.702Z,97.30
2022-08-26T05:43:23.828Z,97.30
2022-08-26T05:45:52.511Z,97.30
2022-08-26T05:48:24.189Z,97.30
2022-08-26T05:50:54.251Z,97.50
2022-08-26T05:53:24.018Z,97.50
2022-08-26T05:55:55.538Z,97.60
2022-08-26T05:58:24.904Z,97.50
2022-08-26T06:01:00.294Z,97.70
2022-08-26T06:03:31.105Z,97.70
2022-08-26T06:06:00.103Z,97.30
2022-08-26T06:08:28.297Z,97.30
2022-08-26T06:11:00.967Z,97.20
2022-08-26T06:13:32.021Z,97.40
2022-08-26T06:16:01.636Z,97.20
2022-08-26T06:18:35.502Z,97.00
2022-08-26T06:21:14.252Z,97.00
2022-08-26T06:24:01.820Z,96.90
2022-08-26T06:26:30.774Z,96.80
2022-08-26T06:28:59.373Z,96.70
2022-08-26T06:31:34.317Z,96.50
2022-08-26T06:34:10.514Z,96.40
2022-08-26T06:36:40.449Z,96.30
2022-08-26T06:39:19.064Z,96.20
2022-08-26T06:41:48.867Z,96.10
2022-08-26T06:44:18.838Z,96.00
2022-08-26T06:46:50.395Z,95.90
2022-08-26T06:49:26.974Z,95.80
2022-08-26T06:51:58.447Z,95.50
2022-08-26T06:54:27.466Z,95.30
2022-08-26T06:56:57.217Z,95.40
2022-08-26T06:59:25.960Z,95.00
2022-08-26T07:01:55.052Z,94.90
2022-08-26T07:04:25.159Z,94.60
2022-08-26T07:06:58.693Z,94.40
2022-08-26T07:09:30.449Z,94.10
2022-08-26T07:11:58.883Z,93.90
2022-08-26T07:14:27.473Z,93.70
2022-08-26T07:16:56.072Z,93.60
2022-08-26T07:19:29.982Z,93.20
2022-08-26T07:22:02.095Z,93.00
2022-08-26T07:24:31.208Z,92.70
2022-08-26T07:27:02.785Z,92.80
2022-08-26T07:29:31.538Z,92.50
2022-08-26T07:31:59.980Z,92.40
2022-08-26T07:34:29.760Z,92.40
2022-08-26T07:36:58.838Z,92.20
2022-08-26T07:39:27.988Z,91.90
2022-08-26T07:41:56.461Z,91.80
2022-08-26T07:44:27.275Z,91.60
2022-08-26T07:46:55.835Z,91.40
2022-08-26T07:49:27.104Z,91.30
2022-08-26T07:51:58.081Z,91.10
2022-08-26T07:54:26.742Z,91.10
2022-08-26T07:56:56.227Z,90.90
2022-08-26T07:59:27.565Z,90.90
2022-08-26T08:01:59.344Z,90.50
2022-08-26T08:04:29.565Z,90.50
2022-08-26T08:06:59.450Z,90.20
2022-08-26T08:09:28.842Z,90.40
2022-08-26T08:12:00.608Z,89.90
2022-08-26T08:14:28.956Z,89.70
2022-08-26T08:17:00.670Z,89.20
2022-08-26T08:19:36.835Z,89.20
2022-08-26T08:22:17.130Z,88.50
2022-08-26T08:24:46.126Z,87.90
2022-08-26T08:27:23.518Z,87.80
2022-08-26T08:29:55.733Z,87.20
2022-08-26T08:32:25.071Z,86.50
2022-08-26T08:34:54.407Z,86.10
2022-08-26T08:37:24.442Z,85.80
2022-08-26T08:39:52.913Z,85.30
2022-08-26T08:42:42.423Z,84.90
2022-08-26T08:45:15.390Z,83.90
2022-08-26T08:47:50.388Z,83.60
2022-08-26T08:50:25.849Z,83.00
2022-08-26T08:53:05.778Z,82.40
2022-08-26T08:55:50.059Z,82.10
2022-08-26T08:58:21.338Z,81.40
2022-08-26T09:00:56.053Z,81.10
2022-08-26T09:03:39.611Z,80.30
2022-08-26T09:06:17.062Z,79.60
2022-08-26T09:08:50.271Z,79.60
2022-08-26T09:11:20.958Z,79.00
2022-08-26T09:13:57.918Z,78.80
2022-08-26T09:16:46.244Z,78.00
2022-08-26T09:19:31.922Z,77.80
2022-08-26T09:22:07.029Z,77.20
2022-08-26T09:24:48.376Z,77.00
2022-08-26T09:27:50.536Z,76.20
2022-08-26T09:30:35.001Z,75.70
2022-08-26T09:33:10.869Z,76.00
2022-08-26T09:35:42.025Z,75.80
2022-08-26T09:38:27.239Z,76.00
2022-08-26T09:41:01.809Z,75.50
2022-08-26T09:43:35.578Z,75.70
2022-08-26T09:46:19.807Z,76.40
2022-08-26T09:49:54.010Z,76.00
2022-08-26T09:52:29.592Z,75.30
2022-08-26T09:55:14.735Z,75.90
2022-08-26T09:58:07.996Z,76.30
2022-08-26T10:00:39.654Z,75.40
2022-08-26T10:03:17.282Z,75.50
2022-08-26T10:06:02.469Z,75.60
2022-08-26T10:08:38.368Z,75.70
2022-08-26T10:11:24.623Z,76.10
2022-08-26T10:14:00.064Z,75.90
2022-08-26T10:16:37.832Z,76.60
2022-08-26T10:19:11.456Z,76.40
2022-08-26T10:22:16.512Z,76.20
2022-08-26T10:24:54.938Z,77.00
2022-08-26T10:28:21.321Z,76.40
2022-08-26T10:31:40.733Z,76.30
2022-08-26T10:35:05.503Z,76.50
2022-08-26T10:37:46.850Z,77.20
2022-08-26T10:41:09.901Z,76.90
2022-08-26T10:47:39.314Z,77.70
2022-08-26T10:54:10.401Z,78.20
2022-08-26T10:57:06.224Z,78.30
2022-08-26T11:00:24.068Z,78.70
2022-08-26T11:03:21.879Z,78.80
2022-08-26T11:06:23.058Z,79.20
2022-08-26T11:08:55.295Z,78.00
2022-08-26T11:11:56.894Z,76.80
2022-08-26T11:14:53.339Z,76.90
2022-08-26T11:18:11.458Z,76.10
2022-08-26T11:21:20.209Z,74.80
2022-08-26T11:23:55.164Z,74.20
2022-08-26T11:26:43.251Z,73.70
2022-08-26T11:30:03.053Z,71.90
2022-08-26T11:32:53.424Z,71.10
2022-08-26T11:36:14.831Z,70.40
2022-08-26T11:38:45.416Z,68.80
2022-08-26T11:41:23.284Z,66.90
2022-08-26T11:43:58.647Z,63.50
2022-08-26T11:46:38.304Z,62.80
2022-08-26T11:49:13.177Z,60.70
2022-08-26T11:51:55.721Z,59.70
2022-08-26T11:54:37.800Z,58.20
2022-08-26T11:57:27.447Z,57.40
2022-08-26T12:00:03.956Z,56.80
2022-08-26T12:02:44.809Z,55.60
2022-08-26T12:05:18.412Z,54.60
2022-08-26T12:07:57.415Z,53.90
2022-08-26T12:10:38.033Z,52.90
2022-08-26T12:13:26.251Z,52.70
2022-08-26T12:16:03.683Z,52.20
2022-08-26T12:18:36.197Z,52.80
2022-08-26T12:21:14.515Z,51.40
2022-08-26T12:23:50.039Z,49.00
2022-08-26T12:26:28.253Z,48.30
2022-08-26T12:29:19.853Z,47.80
2022-08-26T12:31:50.227Z,47.40
2022-08-26T12:34:19.711Z,47.20
2022-08-26T12:36:55.310Z,47.30
2022-08-26T12:39:31.564Z,46.90
2022-08-26T12:42:01.944Z,46.40
2022-08-26T12:44:38.529Z,46.40
2022-08-26T12:47:13.792Z,46.40
2022-08-26T12:49:45.178Z,47.40
2022-08-26T12:52:31.697Z,47.40
2022-08-26T12:55:03.180Z,46.40
2022-08-26T12:57:35.314Z,45.90
2022-08-26T13:00:31.978Z,45.60
2022-08-26T13:03:04.663Z,44.00
2022-08-26T13:05:35.669Z,44.10
2022-08-26T13:08:16.339Z,44.20
2022-08-26T13:10:47.011Z,43.30
2022-08-26T13:13:19.952Z,43.90
2022-08-26T13:15:50.304Z,43.30
2022-08-26T13:18:22.176Z,42.70
2022-08-26T13:20:50.512Z,42.50
2022-08-26T13:23:27.206Z,42.90
2022-08-26T13:25:55.902Z,42.50
2022-08-26T13:28:24.480Z,41.70
2022-08-26T13:30:54.604Z,41.60
2022-08-26T13:33:22.962Z,41.60
2022-08-26T13:35:58.394Z,41.40
2022-08-26T13:38:33.693Z,41.30
2022-08-26T13:41:03.719Z,41.30
2022-08-26T13:43:32.442Z,41.60
2022-08-26T13:46:02.783Z,42.40
2022-08-26T13:48:31.960Z,42.70
2022-08-26T13:51:02.763Z,43.40
2022-08-26T13:53:36.335Z,44.30
2022-08-26T13:56:10.802Z,44.70
2022-08-26T13:58:39.552Z,45.30
2022-08-26T14:01:09.932Z,45.90
2022-08-26T14:03:38.565Z,46.70
2022-08-26T14:06:07.228Z,47.50
2022-08-26T14:08:36.959Z,48.10
2022-08-26T14:11:05.500Z,49.00
2022-08-26T14:13:34.020Z,49.70
2022-08-26T14:16:10.207Z,51.00
2022-08-26T14:18:43.042Z,51.90
2022-08-26T14:21:14.915Z,52.90
2022-08-26T14:23:43.248Z,53.70
2022-08-26T14:26:16.807Z,54.50
2022-08-26T14:28:57.366Z,54.60
2022-08-26T14:31:27.103Z,54.50
2022-08-26T14:33:59.074Z,54.80
2022-08-26T14:36:32.371Z,55.10
2022-08-26T14:39:07.503Z,55.60
2022-08-26T14:41:44.081Z,54.40
2022-08-26T14:44:15.213Z,53.40
2022-08-26T14:46:46.941Z,52.50
2022-08-26T14:49:19.682Z,52.60
2022-08-26T14:51:48.494Z,52.10
2022-08-26T14:54:18.524Z,51.50
2022-08-26T14:56:49.669Z,50.40
2022-08-26T14:59:20.860Z,49.60
2022-08-26T15:01:49.372Z,49.10
2022-08-26T15:04:19.848Z,48.70
2022-08-26T15:06:48.739Z,48.30
2022-08-26T15:09:17.677Z,48.00
2022-08-26T15:11:48.139Z,48.00
2022-08-26T15:14:20.422Z,48.00
2022-08-26T15:16:52.778Z,47.70
2022-08-26T15:19:24.002Z,47.50
2022-08-26T15:21:52.485Z,48.10
2022-08-26T15:24:22.982Z,47.30
2022-08-26T15:26:52.110Z,47.20
2022-08-26T15:29:21.662Z,47.00
2022-08-26T15:31:49.886Z,47.10
2022-08-26T15:34:20.609Z,46.60
2022-08-26T15:36:50.429Z,46.20
2022-08-26T15:39:19.035Z,45.60
2022-08-26T15:41:47.905Z,46.00
2022-08-26T15:44:19.797Z,46.10
2022-08-26T15:46:49.958Z,46.50
2022-08-26T15:49:20.220Z,47.40
2022-08-26T15:51:52.531Z,47.90
2022-08-26T15:54:24.227Z,48.40
2022-08-26T15:56:53.919Z,48.50
2022-08-26T15:59:23.463Z,48.90
2022-08-26T16:01:52.384Z,48.90
2022-08-26T16:04:21.130Z,49.60
2022-08-26T16:06:52.279Z,50.00
2022-08-26T16:09:24.203Z,50.60
2022-08-26T16:11:52.893Z,52.00
2022-08-26T16:14:21.640Z,51.70
2022-08-26T16:16:50.571Z,52.20
2022-08-26T16:19:19.231Z,52.90
2022-08-26T16:21:48.204Z,53.70
2022-08-26T16:24:17.974Z,54.20
2022-08-26T16:26:46.342Z,54.70
2022-08-26T16:29:17.060Z,55.10
2022-08-26T16:31:45.408Z,55.60
2022-08-26T16:34:13.809Z,55.70
2022-08-26T16:36:42.057Z,55.90
2022-08-26T16:39:10.898Z,56.30
2022-08-26T16:41:42.941Z,56.70
2022-08-26T16:44:12.130Z,57.30
2022-08-26T16:46:42.955Z,57.70
2022-08-26T16:49:15.831Z,58.30
2022-08-26T16:51:44.343Z,59.50
2022-08-26T16:54:13.398Z,59.50
2022-08-26T16:56:44.254Z,59.80
2022-08-26T16:59:15.445Z,60.40
2022-08-26T17:01:43.815Z,60.50
2022-08-26T17:04:12.201Z,60.80
2022-08-26T17:06:43.610Z,61.40
2022-08-26T17:09:12.080Z,61.90
2022-08-26T17:11:41.406Z,62.00
2022-08-26T17:14:11.529Z,61.90
2022-08-26T17:16:40.234Z,62.00
2022-08-26T17:19:08.616Z,62.10
2022-08-26T17:21:39.208Z,62.30
2022-08-26T17:24:08.033Z,62.30
2022-08-26T17:26:38.005Z,62.70
2022-08-26T17:29:12.762Z,63.20
2022-08-26T17:31:43.516Z,63.10
2022-08-26T17:34:13.094Z,64.00
2022-08-26T17:36:41.929Z,64.20
2022-08-26T17:39:13.517Z,64.70
2022-08-26T17:41:42.666Z,64.50
2022-08-26T17:44:12.862Z,65.00
2022-08-26T17:46:41.515Z,65.30
2022-08-26T17:49:16.524Z,65.80
2022-08-26T17:55:09.694Z,66.00
2022-08-26T17:57:47.759Z,66.80
2022-08-26T18:00:44.671Z,67.00
2022-08-26T18:03:16.365Z,67.10
2022-08-26T18:05:54.577Z,67.30
2022-08-26T18:08:58.866Z,67.40
2022-08-26T18:11:53.084Z,67.70
2022-08-26T18:14:23.674Z,68.00
2022-08-26T18:16:54.287Z,68.40
2022-08-26T18:19:22.722Z,69.00
2022-08-26T18:21:52.750Z,69.20
2022-08-26T18:24:21.275Z,69.40
2022-08-26T18:26:51.329Z,69.40
2022-08-26T18:29:21.969Z,69.60
2022-08-26T18:31:50.616Z,69.70
2022-08-26T18:34:24.962Z,70.30
2022-08-26T18:39:47.613Z,70.60
2022-08-26T18:42:24.270Z,70.60
2022-08-26T18:44:52.854Z,70.70
2022-08-26T18:47:59.821Z,71.20
2022-08-26T18:50:50.140Z,71.70
2022-08-26T18:53:27.581Z,71.50
2022-08-26T18:55:56.309Z,72.70
2022-08-26T18:58:35.604Z,71.90
2022-08-26T19:01:18.472Z,72.10
2022-08-26T19:03:52.777Z,72.20
2022-08-26T19:06:27.635Z,72.20
2022-08-26T19:09:14.619Z,72.00
2022-08-26T19:11:43.688Z,72.40
2022-08-26T19:14:14.429Z,72.70
2022-08-26T19:16:45.449Z,72.80
2022-08-26T19:19:15.323Z,72.80
2022-08-26T19:21:45.299Z,73.00
2022-08-26T19:24:17.638Z,73.20
2022-08-26T19:26:58.442Z,73.10
2022-08-26T19:29:31.479Z,73.30
2022-08-26T19:32:02.086Z,73.30
2022-08-26T19:34:31.670Z,73.40
2022-08-26T19:37:02.515Z,73.80
2022-08-26T19:39:31.594Z,73.90
2022-08-26T19:42:00.886Z,73.70
2022-08-26T19:44:46.784Z,73.70
2022-08-26T19:47:17.336Z,73.90
2022-08-26T19:49:46.194Z,74.00
2022-08-26T19:52:16.332Z,73.80
2022-08-26T19:54:44.840Z,73.80
2022-08-26T19:57:14.762Z,73.80
2022-08-26T19:59:43.399Z,73.80
2022-08-26T20:02:15.131Z,74.50
2022-08-26T20:04:47.542Z,73.90
2022-08-26T20:13:22.840Z,73.70
2022-08-26T20:15:51.297Z,74.50
2022-08-26T20:18:54.432Z,74.40
2022-08-26T20:21:29.925Z,74.70
2022-08-26T20:24:03.651Z,74.50
2022-08-26T20:26:35.129Z,74.70
2022-08-26T20:29:07.980Z,75.00
2022-08-26T20:31:40.092Z,75.00
2022-08-26T20:34:15.850Z,75.50
2022-08-26T20:36:46.553Z,75.60
2022-08-26T20:39:18.989Z,75.10
2022-08-26T20:41:48.069Z,75.50
2022-08-26T20:44:19.121Z,75.70
2022-08-26T20:46:51.582Z,76.00
2022-08-26T20:49:22.622Z,76.00
2022-08-26T20:51:54.485Z,75.80
2022-08-26T20:54:31.202Z,76.00
2022-08-26T20:57:00.702Z,76.00
2022-08-26T21:00:00.595Z,76.30
2022-08-26T21:02:43.101Z,76.60
2022-08-26T21:05:11.971Z,77.00
2022-08-26T21:07:41.283Z,77.30
2022-08-26T21:10:20.708Z,77.80
2022-08-26T21:12:55.003Z,77.80
2022-08-26T21:15:24.772Z,78.70
2022-08-26T21:17:57.816Z,78.60
2022-08-26T21:20:27.633Z,79.20
2022-08-26T21:22:56.228Z,79.70
2022-08-26T21:25:26.702Z,79.90
2022-08-26T21:27:55.764Z,80.10
2022-08-26T21:30:24.711Z,80.30
2022-08-26T21:32:56.150Z,80.80
2022-08-26T21:35:26.335Z,81.10
2022-08-26T21:37:54.792Z,81.40
2022-08-26T21:40:25.495Z,81.50
2022-08-26T21:42:54.008Z,81.80
2022-08-26T21:45:22.499Z,82.00
2022-08-26T21:47:51.314Z,82.00
2022-08-26T21:50:19.963Z,82.20
2022-08-26T21:52:49.683Z,82.50
2022-08-26T21:55:18.267Z,82.90
2022-08-26T21:57:48.988Z,83.00
2022-08-26T22:00:19.529Z,83.40
2022-08-26T22:02:50.395Z,83.10
2022-08-26T22:05:21.072Z,83.30
2022-08-26T22:07:51.909Z,83.70
2022-08-26T22:10:20.496Z,84.00
2022-08-26T22:12:48.888Z,84.10
2022-08-26T22:15:19.808Z,84.50
2022-08-26T22:17:48.151Z,84.40
2022-08-26T22:20:16.885Z,84.60
2022-08-26T22:22:45.155Z,84.70
2022-08-26T22:25:17.559Z,85.00
2022-08-26T22:27:45.997Z,85.30
2022-08-26T22:30:14.769Z,85.20
2022-08-26T22:32:44.015Z,85.20
2022-08-26T22:35:28.956Z,85.30
2022-08-26T22:37:58.342Z,85.30
2022-08-26T22:40:30.796Z,85.30
2022-08-26T22:43:00.290Z,85.70
2022-08-26T22:45:29.287Z,85.60
2022-08-26T22:47:57.619Z,85.70
2022-08-26T22:50:26.110Z,85.70
2022-08-26T22:52:54.357Z,85.80
2022-08-26T22:55:22.654Z,86.00
2022-08-26T22:57:52.385Z,86.00
2022-08-26T23:00:20.729Z,85.90
2022-08-26T23:03:01.010Z,86.10
2022-08-26T23:05:29.712Z,85.90
2022-08-26T23:07:58.244Z,86.10
2022-08-26T23:10:27.035Z,86.50
2022-08-26T23:12:57.576Z,86.80
2022-08-26T23:15:26.440Z,86.70
2022-08-26T23:17:58.947Z,86.70
2022-08-26T23:20:42.655Z,86.80
2022-08-26T23:23:11.028Z,86.80
2022-08-26T23:25:39.234Z,86.80
2022-08-26T23:28:12.548Z,86.60
2022-08-26T23:30:41.018Z,86.80
2022-08-26T23:33:09.193Z,86.70
2022-08-26T23:35:36.597Z,86.70
2022-08-26T23:38:11.704Z,87.10
2022-08-26T23:40:43.024Z,87.20
2022-08-26T23:43:20.510Z,87.10
2022-08-26T23:45:49.184Z,87.30
2022-08-26T23:48:20.922Z,87.40
2022-08-26T23:51:06.572Z,87.50
2022-08-26T23:53:34.927Z,87.60
2022-08-26T23:56:03.277Z,87.90
2022-08-26T23:58:35.426Z,87.80
